sensor_id;sensor_type;location;lat;lon;timestamp;P1;durP1;ratioP1;P2;durP2;ratioP2
53299;SDS011;39187;48.476;8.310;2022-07-06T00:01:54;3.00;;;2.63;;
53299;SDS011;39187;48.476;8.310;2022-07-06T00:04:20;4.03;;;2.50;;
53299;SDS011;39187;48.476;8.310;2022-07-06T00:06:46;5.83;;;2.80;;
53299;SDS011;39187;48.476;8.310;2022-07-06T00:09:12;3.53;;;2.60;;
53299;SDS011;39187;48.476;8.310;2022-07-06T00:11:38;4.23;;;2.03;;
53299;SDS011;39187;48.476;8.310;2022-07-06T00:14:03;5.00;;;2.93;;
53299;SDS011;39187;48.476;8.310;2022-07-06T00:16:30;2.60;;;2.50;;
53299;SDS011;39187;48.476;8.310;2022-07-06T00:18:56;2.50;;;2.30;;
53299;SDS011;39187;48.476;8.310;2022-07-06T00:21:22;3.30;;;2.30;;
53299;SDS011;39187;48.476;8.310;2022-07-06T00:23:48;2.87;;;2.47;;
53299;SDS011;39187;48.476;8.310;2022-07-06T00:26:14;3.40;;;3.17;;
53299;SDS011;39187;48.476;8.310;2022-07-06T00:28:39;5.83;;;2.80;;
53299;SDS011;39187;48.476;8.310;2022-07-06T00:31:05;3.43;;;2.93;;
53299;SDS011;39187;48.476;8.310;2022-07-06T00:33:31;4.73;;;2.30;;
53299;SDS011;39187;48.476;8.310;2022-07-06T00:35:57;3.67;;;2.57;;
53299;SDS011;39187;48.476;8.310;2022-07-06T00:38:22;4.03;;;2.30;;
53299;SDS011;39187;48.476;8.310;2022-07-06T00:40:48;2.80;;;2.60;;
53299;SDS011;39187;48.476;8.310;2022-07-06T00:43:14;3.40;;;2.70;;
53299;SDS011;39187;48.476;8.310;2022-07-06T00:45:39;2.80;;;2.60;;
53299;SDS011;39187;48.476;8.310;2022-07-06T00:48:05;2.93;;;2.77;;
53299;SDS011;39187;48.476;8.310;2022-07-06T00:50:31;5.23;;;2.60;;
53299;SDS011;39187;48.476;8.310;2022-07-06T00:53:02;3.70;;;3.50;;
53299;SDS011;39187;48.476;8.310;2022-07-06T00:55:30;4.83;;;2.80;;
53299;SDS011;39187;48.476;8.310;2022-07-06T00:57:58;5.53;;;2.50;;
53299;SDS011;39187;48.476;8.310;2022-07-06T01:00:27;3.00;;;2.80;;
53299;SDS011;39187;48.476;8.310;2022-07-06T01:02:53;3.13;;;2.93;;
53299;SDS011;39187;48.476;8.310;2022-07-06T01:05:20;3.23;;;2.90;;
53299;SDS011;39187;48.476;8.310;2022-07-06T01:07:47;2.60;;;2.50;;
53299;SDS011;39187;48.476;8.310;2022-07-06T01:10:15;2.63;;;2.53;;
53299;SDS011;39187;48.476;8.310;2022-07-06T01:12:43;3.47;;;2.43;;
53299;SDS011;39187;48.476;8.310;2022-07-06T01:15:14;2.93;;;2.83;;
53299;SDS011;39187;48.476;8.310;2022-07-06T01:17:48;3.23;;;3.00;;
53299;SDS011;39187;48.476;8.310;2022-07-06T01:22:50;2.40;;;2.30;;
53299;SDS011;39187;48.476;8.310;2022-07-06T01:25:16;9.27;;;2.80;;
53299;SDS011;39187;48.476;8.310;2022-07-06T01:27:43;2.60;;;2.37;;
53299;SDS011;39187;48.476;8.310;2022-07-06T01:30:13;3.47;;;3.03;;
53299;SDS011;39187;48.476;8.310;2022-07-06T01:32:40;5.10;;;3.00;;
53299;SDS011;39187;48.476;8.310;2022-07-06T01:35:07;3.07;;;2.87;;
53299;SDS011;39187;48.476;8.310;2022-07-06T01:37:34;2.93;;;2.83;;
53299;SDS011;39187;48.476;8.310;2022-07-06T01:40:01;3.97;;;2.93;;
53299;SDS011;39187;48.476;8.310;2022-07-06T01:42:28;2.50;;;2.30;;
53299;SDS011;39187;48.476;8.310;2022-07-06T01:44:53;2.57;;;2.47;;
53299;SDS011;39187;48.476;8.310;2022-07-06T01:47:19;4.63;;;3.07;;
53299;SDS011;39187;48.476;8.310;2022-07-06T01:49:45;2.83;;;2.73;;
53299;SDS011;39187;48.476;8.310;2022-07-06T01:52:11;3.13;;;2.93;;
53299;SDS011;39187;48.476;8.310;2022-07-06T01:54:37;3.20;;;2.97;;
53299;SDS011;39187;48.476;8.310;2022-07-06T01:57:03;3.23;;;2.90;;
53299;SDS011;39187;48.476;8.310;2022-07-06T01:59:29;7.50;;;3.00;;
53299;SDS011;39187;48.476;8.310;2022-07-06T02:01:54;2.97;;;2.77;;
53299;SDS011;39187;48.476;8.310;2022-07-06T02:04:20;3.20;;;3.00;;
53299;SDS011;39187;48.476;8.310;2022-07-06T02:06:46;3.77;;;3.50;;
53299;SDS011;39187;48.476;8.310;2022-07-06T02:09:11;6.13;;;2.93;;
53299;SDS011;39187;48.476;8.310;2022-07-06T02:11:37;4.23;;;2.60;;
53299;SDS011;39187;48.476;8.310;2022-07-06T02:14:03;3.00;;;2.70;;
53299;SDS011;39187;48.476;8.310;2022-07-06T02:16:28;3.10;;;2.77;;
53299;SDS011;39187;48.476;8.310;2022-07-06T02:18:54;3.67;;;3.30;;
53299;SDS011;39187;48.476;8.310;2022-07-06T02:21:19;3.60;;;3.40;;
53299;SDS011;39187;48.476;8.310;2022-07-06T02:23:45;3.73;;;3.43;;
53299;SDS011;39187;48.476;8.310;2022-07-06T02:26:10;3.20;;;2.70;;
53299;SDS011;39187;48.476;8.310;2022-07-06T02:28:36;5.43;;;3.37;;
53299;SDS011;39187;48.476;8.310;2022-07-06T02:31:01;3.30;;;2.80;;
53299;SDS011;39187;48.476;8.310;2022-07-06T02:33:27;5.20;;;3.00;;
53299;SDS011;39187;48.476;8.310;2022-07-06T02:35:53;3.63;;;2.80;;
53299;SDS011;39187;48.476;8.310;2022-07-06T02:38:18;4.40;;;3.30;;
53299;SDS011;39187;48.476;8.310;2022-07-06T02:40:44;9.13;;;3.50;;
53299;SDS011;39187;48.476;8.310;2022-07-06T02:43:10;3.93;;;3.20;;
53299;SDS011;39187;48.476;8.310;2022-07-06T02:45:35;3.33;;;3.13;;
53299;SDS011;39187;48.476;8.310;2022-07-06T02:48:01;5.73;;;3.60;;
53299;SDS011;39187;48.476;8.310;2022-07-06T02:50:27;3.30;;;2.97;;
53299;SDS011;39187;48.476;8.310;2022-07-06T02:52:53;3.30;;;3.10;;
53299;SDS011;39187;48.476;8.310;2022-07-06T02:55:20;3.80;;;3.50;;
53299;SDS011;39187;48.476;8.310;2022-07-06T02:57:45;5.87;;;3.50;;
53299;SDS011;39187;48.476;8.310;2022-07-06T03:00:11;3.83;;;3.60;;
53299;SDS011;39187;48.476;8.310;2022-07-06T03:02:37;7.60;;;3.17;;
53299;SDS011;39187;48.476;8.310;2022-07-06T03:05:03;4.17;;;3.97;;
53299;SDS011;39187;48.476;8.310;2022-07-06T03:07:29;4.00;;;3.80;;
53299;SDS011;39187;48.476;8.310;2022-07-06T03:09:55;3.63;;;3.53;;
53299;SDS011;39187;48.476;8.310;2022-07-06T03:12:20;5.27;;;3.53;;
53299;SDS011;39187;48.476;8.310;2022-07-06T03:14:46;4.00;;;3.70;;
53299;SDS011;39187;48.476;8.310;2022-07-06T03:17:11;3.80;;;3.50;;
53299;SDS011;39187;48.476;8.310;2022-07-06T03:19:37;5.73;;;3.63;;
53299;SDS011;39187;48.476;8.310;2022-07-06T03:22:03;3.90;;;3.37;;
53299;SDS011;39187;48.476;8.310;2022-07-06T03:24:29;3.60;;;3.40;;
53299;SDS011;39187;48.476;8.310;2022-07-06T03:26:55;5.20;;;3.57;;
53299;SDS011;39187;48.476;8.310;2022-07-06T03:29:20;6.87;;;3.50;;
53299;SDS011;39187;48.476;8.310;2022-07-06T03:31:46;4.07;;;3.70;;
53299;SDS011;39187;48.476;8.310;2022-07-06T03:34:12;3.97;;;3.70;;
53299;SDS011;39187;48.476;8.310;2022-07-06T03:36:38;4.07;;;3.80;;
53299;SDS011;39187;48.476;8.310;2022-07-06T03:39:04;3.63;;;3.33;;
53299;SDS011;39187;48.476;8.310;2022-07-06T03:41:30;3.13;;;2.93;;
53299;SDS011;39187;48.476;8.310;2022-07-06T03:43:55;9.80;;;4.10;;
53299;SDS011;39187;48.476;8.310;2022-07-06T03:46:21;3.60;;;3.30;;
53299;SDS011;39187;48.476;8.310;2022-07-06T03:48:46;6.43;;;4.07;;
53299;SDS011;39187;48.476;8.310;2022-07-06T03:51:12;4.20;;;3.13;;
53299;SDS011;39187;48.476;8.310;2022-07-06T03:53:37;5.27;;;3.43;;
53299;SDS011;39187;48.476;8.310;2022-07-06T03:56:03;3.90;;;3.70;;
53299;SDS011;39187;48.476;8.310;2022-07-06T03:58:48;5.20;;;4.73;;
53299;SDS011;39187;48.476;8.310;2022-07-06T04:01:13;4.53;;;4.00;;
53299;SDS011;39187;48.476;8.310;2022-07-06T04:03:39;4.53;;;4.17;;
53299;SDS011;39187;48.476;8.310;2022-07-06T04:06:05;3.57;;;3.47;;
53299;SDS011;39187;48.476;8.310;2022-07-06T04:08:30;4.07;;;3.83;;
53299;SDS011;39187;48.476;8.310;2022-07-06T04:10:56;4.33;;;4.10;;
53299;SDS011;39187;48.476;8.310;2022-07-06T04:13:22;3.70;;;3.50;;
53299;SDS011;39187;48.476;8.310;2022-07-06T04:15:48;4.07;;;3.40;;
53299;SDS011;39187;48.476;8.310;2022-07-06T04:18:14;5.00;;;3.87;;
53299;SDS011;39187;48.476;8.310;2022-07-06T04:20:39;6.10;;;4.30;;
53299;SDS011;39187;48.476;8.310;2022-07-06T04:23:05;4.57;;;3.57;;
53299;SDS011;39187;48.476;8.310;2022-07-06T04:25:30;4.00;;;3.70;;
53299;SDS011;39187;48.476;8.310;2022-07-06T04:27:56;5.97;;;5.57;;
53299;SDS011;39187;48.476;8.310;2022-07-06T04:30:22;4.27;;;3.87;;
53299;SDS011;39187;48.476;8.310;2022-07-06T04:32:47;5.30;;;4.00;;
53299;SDS011;39187;48.476;8.310;2022-07-06T04:35:13;3.33;;;2.90;;
53299;SDS011;39187;48.476;8.310;2022-07-06T04:37:38;3.77;;;3.47;;
53299;SDS011;39187;48.476;8.310;2022-07-06T04:40:04;4.67;;;3.40;;
53299;SDS011;39187;48.476;8.310;2022-07-06T04:42:30;4.07;;;3.77;;
53299;SDS011;39187;48.476;8.310;2022-07-06T04:44:56;5.63;;;3.40;;
53299;SDS011;39187;48.476;8.310;2022-07-06T04:47:21;4.70;;;3.63;;
53299;SDS011;39187;48.476;8.310;2022-07-06T04:49:47;2.80;;;2.60;;
53299;SDS011;39187;48.476;8.310;2022-07-06T04:52:13;5.43;;;3.53;;
53299;SDS011;39187;48.476;8.310;2022-07-06T04:54:38;2.50;;;2.27;;
53299;SDS011;39187;48.476;8.310;2022-07-06T04:57:04;3.60;;;2.87;;
53299;SDS011;39187;48.476;8.310;2022-07-06T04:59:30;2.90;;;2.70;;
53299;SDS011;39187;48.476;8.310;2022-07-06T05:01:55;2.67;;;2.47;;
53299;SDS011;39187;48.476;8.310;2022-07-06T05:04:21;3.07;;;2.87;;
53299;SDS011;39187;48.476;8.310;2022-07-06T05:06:48;6.20;;;2.50;;
53299;SDS011;39187;48.476;8.310;2022-07-06T05:09:14;4.73;;;2.90;;
53299;SDS011;39187;48.476;8.310;2022-07-06T05:11:39;5.90;;;2.60;;
53299;SDS011;39187;48.476;8.310;2022-07-06T05:14:05;5.63;;;2.30;;
53299;SDS011;39187;48.476;8.310;2022-07-06T05:16:31;2.20;;;2.10;;
53299;SDS011;39187;48.476;8.310;2022-07-06T05:18:58;3.20;;;2.03;;
53299;SDS011;39187;48.476;8.310;2022-07-06T05:21:23;2.07;;;1.97;;
53299;SDS011;39187;48.476;8.310;2022-07-06T05:23:49;8.73;;;1.97;;
53299;SDS011;39187;48.476;8.310;2022-07-06T05:26:15;4.80;;;2.03;;
53299;SDS011;39187;48.476;8.310;2022-07-06T05:28:41;2.07;;;1.97;;
53299;SDS011;39187;48.476;8.310;2022-07-06T05:31:07;2.50;;;2.30;;
53299;SDS011;39187;48.476;8.310;2022-07-06T05:33:32;5.63;;;2.00;;
53299;SDS011;39187;48.476;8.310;2022-07-06T05:35:58;2.40;;;2.30;;
53299;SDS011;39187;48.476;8.310;2022-07-06T05:38:24;9.33;;;4.10;;
53299;SDS011;39187;48.476;8.310;2022-07-06T05:40:50;3.00;;;2.73;;
53299;SDS011;39187;48.476;8.310;2022-07-06T05:43:16;4.70;;;2.10;;
53299;SDS011;39187;48.476;8.310;2022-07-06T05:45:41;7.43;;;3.00;;
53299;SDS011;39187;48.476;8.310;2022-07-06T05:48:07;3.33;;;2.57;;
53299;SDS011;39187;48.476;8.310;2022-07-06T05:50:51;3.17;;;2.03;;
53299;SDS011;39187;48.476;8.310;2022-07-06T05:53:16;2.77;;;2.43;;
53299;SDS011;39187;48.476;8.310;2022-07-06T05:55:42;3.30;;;2.03;;
53299;SDS011;39187;48.476;8.310;2022-07-06T05:58:08;2.10;;;2.00;;
53299;SDS011;39187;48.476;8.310;2022-07-06T06:00:33;1.90;;;1.80;;
53299;SDS011;39187;48.476;8.310;2022-07-06T06:02:59;1.77;;;1.67;;
53299;SDS011;39187;48.476;8.310;2022-07-06T06:05:25;1.77;;;1.67;;
53299;SDS011;39187;48.476;8.310;2022-07-06T06:07:51;1.90;;;1.80;;
53299;SDS011;39187;48.476;8.310;2022-07-06T06:10:18;5.37;;;2.20;;
53299;SDS011;39187;48.476;8.310;2022-07-06T06:12:44;2.30;;;2.20;;
53299;SDS011;39187;48.476;8.310;2022-07-06T06:15:10;6.33;;;1.70;;
53299;SDS011;39187;48.476;8.310;2022-07-06T06:17:37;2.27;;;2.07;;
53299;SDS011;39187;48.476;8.310;2022-07-06T06:20:04;4.77;;;1.90;;
53299;SDS011;39187;48.476;8.310;2022-07-06T06:22:31;3.03;;;1.90;;
53299;SDS011;39187;48.476;8.310;2022-07-06T06:25:09;3.43;;;2.23;;
53299;SDS011;39187;48.476;8.310;2022-07-06T06:27:34;1.77;;;1.67;;
53299;SDS011;39187;48.476;8.310;2022-07-06T06:30:00;4.20;;;2.13;;
53299;SDS011;39187;48.476;8.310;2022-07-06T06:32:25;2.03;;;1.93;;
53299;SDS011;39187;48.476;8.310;2022-07-06T06:34:51;1.90;;;1.80;;
53299;SDS011;39187;48.476;8.310;2022-07-06T06:37:16;3.40;;;2.40;;
53299;SDS011;39187;48.476;8.310;2022-07-06T06:39:42;3.00;;;1.83;;
53299;SDS011;39187;48.476;8.310;2022-07-06T06:42:08;3.30;;;2.20;;
53299;SDS011;39187;48.476;8.310;2022-07-06T06:44:33;1.83;;;1.73;;
53299;SDS011;39187;48.476;8.310;2022-07-06T06:46:59;2.67;;;2.47;;
53299;SDS011;39187;48.476;8.310;2022-07-06T06:49:25;6.53;;;2.40;;
53299;SDS011;39187;48.476;8.310;2022-07-06T06:51:50;1.87;;;1.77;;
53299;SDS011;39187;48.476;8.310;2022-07-06T06:54:16;4.70;;;1.67;;
53299;SDS011;39187;48.476;8.310;2022-07-06T06:56:42;2.33;;;2.13;;
53299;SDS011;39187;48.476;8.310;2022-07-06T06:59:07;2.45;;;2.25;;
53299;SDS011;39187;48.476;8.310;2022-07-06T07:01:33;2.17;;;1.70;;
53299;SDS011;39187;48.476;8.310;2022-07-06T07:03:58;2.53;;;1.67;;
53299;SDS011;39187;48.476;8.310;2022-07-06T07:06:24;1.93;;;1.80;;
53299;SDS011;39187;48.476;8.310;2022-07-06T07:08:49;1.40;;;1.30;;
53299;SDS011;39187;48.476;8.310;2022-07-06T07:11:15;2.00;;;1.90;;
53299;SDS011;39187;48.476;8.310;2022-07-06T07:13:41;4.20;;;1.50;;
53299;SDS011;39187;48.476;8.310;2022-07-06T07:16:06;4.60;;;1.90;;
53299;SDS011;39187;48.476;8.310;2022-07-06T07:18:32;2.90;;;2.20;;
53299;SDS011;39187;48.476;8.310;2022-07-06T07:20:58;4.80;;;2.40;;
53299;SDS011;39187;48.476;8.310;2022-07-06T07:23:23;3.67;;;2.27;;
53299;SDS011;39187;48.476;8.310;2022-07-06T07:25:49;2.70;;;2.50;;
53299;SDS011;39187;48.476;8.310;2022-07-06T07:28:15;5.00;;;2.27;;
53299;SDS011;39187;48.476;8.310;2022-07-06T07:30:40;2.13;;;1.20;;
53299;SDS011;39187;48.476;8.310;2022-07-06T07:33:06;1.53;;;1.43;;
53299;SDS011;39187;48.476;8.310;2022-07-06T07:35:32;2.17;;;2.00;;
53299;SDS011;39187;48.476;8.310;2022-07-06T07:37:57;7.80;;;2.50;;
53299;SDS011;39187;48.476;8.310;2022-07-06T07:40:23;2.53;;;2.33;;
53299;SDS011;39187;48.476;8.310;2022-07-06T07:42:49;2.13;;;1.73;;
53299;SDS011;39187;48.476;8.310;2022-07-06T07:45:15;2.50;;;1.87;;
53299;SDS011;39187;48.476;8.310;2022-07-06T07:47:40;1.90;;;1.80;;
53299;SDS011;39187;48.476;8.310;2022-07-06T07:50:07;1.80;;;1.70;;
53299;SDS011;39187;48.476;8.310;2022-07-06T07:52:33;2.00;;;1.90;;
53299;SDS011;39187;48.476;8.310;2022-07-06T07:54:58;2.20;;;2.00;;
53299;SDS011;39187;48.476;8.310;2022-07-06T07:57:24;2.80;;;2.43;;
53299;SDS011;39187;48.476;8.310;2022-07-06T07:59:50;1.63;;;1.53;;
53299;SDS011;39187;48.476;8.310;2022-07-06T08:02:15;1.73;;;1.63;;
53299;SDS011;39187;48.476;8.310;2022-07-06T08:04:41;2.80;;;2.60;;
53299;SDS011;39187;48.476;8.310;2022-07-06T08:07:06;5.40;;;2.50;;
53299;SDS011;39187;48.476;8.310;2022-07-06T08:09:32;2.00;;;1.90;;
53299;SDS011;39187;48.476;8.310;2022-07-06T08:11:58;5.13;;;2.20;;
53299;SDS011;39187;48.476;8.310;2022-07-06T08:14:24;3.60;;;2.33;;
53299;SDS011;39187;48.476;8.310;2022-07-06T08:16:49;2.40;;;1.63;;
53299;SDS011;39187;48.476;8.310;2022-07-06T08:19:15;4.07;;;2.20;;
53299;SDS011;39187;48.476;8.310;2022-07-06T08:21:41;2.80;;;2.00;;
53299;SDS011;39187;48.476;8.310;2022-07-06T08:24:07;3.00;;;2.80;;
53299;SDS011;39187;48.476;8.310;2022-07-06T08:26:33;1.73;;;1.63;;
53299;SDS011;39187;48.476;8.310;2022-07-06T08:28:59;2.00;;;1.90;;
53299;SDS011;39187;48.476;8.310;2022-07-06T08:31:25;2.07;;;1.87;;
53299;SDS011;39187;48.476;8.310;2022-07-06T08:33:52;2.00;;;1.90;;
53299;SDS011;39187;48.476;8.310;2022-07-06T08:36:19;2.20;;;1.97;;
53299;SDS011;39187;48.476;8.310;2022-07-06T08:38:45;2.30;;;2.20;;
53299;SDS011;39187;48.476;8.310;2022-07-06T08:41:11;2.90;;;1.97;;
53299;SDS011;39187;48.476;8.310;2022-07-06T08:43:39;3.00;;;2.00;;
53299;SDS011;39187;48.476;8.310;2022-07-06T08:46:05;1.80;;;1.70;;
53299;SDS011;39187;48.476;8.310;2022-07-06T08:48:34;1.50;;;1.40;;
53299;SDS011;39187;48.476;8.310;2022-07-06T08:51:02;2.20;;;2.10;;
53299;SDS011;39187;48.476;8.310;2022-07-06T08:53:29;2.60;;;1.43;;
53299;SDS011;39187;48.476;8.310;2022-07-06T08:55:55;1.80;;;1.70;;
53299;SDS011;39187;48.476;8.310;2022-07-06T08:58:23;2.60;;;1.83;;
53299;SDS011;39187;48.476;8.310;2022-07-06T09:00:50;2.40;;;1.60;;
53299;SDS011;39187;48.476;8.310;2022-07-06T09:03:15;2.00;;;1.80;;
53299;SDS011;39187;48.476;8.310;2022-07-06T09:05:42;2.00;;;1.90;;
53299;SDS011;39187;48.476;8.310;2022-07-06T09:08:11;2.20;;;2.10;;
53299;SDS011;39187;48.476;8.310;2022-07-06T09:10:37;2.97;;;1.90;;
53299;SDS011;39187;48.476;8.310;2022-07-06T09:13:03;1.90;;;1.80;;
53299;SDS011;39187;48.476;8.310;2022-07-06T09:15:30;1.90;;;1.80;;
53299;SDS011;39187;48.476;8.310;2022-07-06T09:17:57;2.60;;;2.40;;
53299;SDS011;39187;48.476;8.310;2022-07-06T09:20:23;2.50;;;2.10;;
53299;SDS011;39187;48.476;8.310;2022-07-06T09:22:49;2.10;;;2.00;;
53299;SDS011;39187;48.476;8.310;2022-07-06T09:25:15;2.23;;;2.03;;
53299;SDS011;39187;48.476;8.310;2022-07-06T09:27:41;1.63;;;1.33;;
53299;SDS011;39187;48.476;8.310;2022-07-06T09:30:11;1.83;;;1.73;;
53299;SDS011;39187;48.476;8.310;2022-07-06T09:32:44;2.03;;;1.93;;
53299;SDS011;39187;48.476;8.310;2022-07-06T09:35:21;2.47;;;1.63;;
53299;SDS011;39187;48.476;8.310;2022-07-06T09:38:00;2.33;;;1.40;;
53299;SDS011;39187;48.476;8.310;2022-07-06T09:40:29;6.30;;;2.27;;
53299;SDS011;39187;48.476;8.310;2022-07-06T09:43:15;2.50;;;2.30;;
53299;SDS011;39187;48.476;8.310;2022-07-06T09:45:44;3.03;;;1.90;;
53299;SDS011;39187;48.476;8.310;2022-07-06T09:48:12;2.27;;;2.17;;
53299;SDS011;39187;48.476;8.310;2022-07-06T09:53:18;2.10;;;2.00;;
53299;SDS011;39187;48.476;8.310;2022-07-06T09:55:45;2.47;;;2.37;;
53299;SDS011;39187;48.476;8.310;2022-07-06T09:58:16;9.13;;;1.80;;
53299;SDS011;39187;48.476;8.310;2022-07-06T10:00:43;2.60;;;1.53;;
53299;SDS011;39187;48.476;8.310;2022-07-06T10:03:10;2.07;;;1.97;;
53299;SDS011;39187;48.476;8.310;2022-07-06T10:05:38;2.20;;;2.10;;
53299;SDS011;39187;48.476;8.310;2022-07-06T10:08:06;1.80;;;1.70;;
53299;SDS011;39187;48.476;8.310;2022-07-06T10:10:34;2.10;;;2.00;;
53299;SDS011;39187;48.476;8.310;2022-07-06T10:13:04;2.13;;;1.90;;
53299;SDS011;39187;48.476;8.310;2022-07-06T10:15:31;4.60;;;2.53;;
53299;SDS011;39187;48.476;8.310;2022-07-06T10:18:00;2.30;;;2.20;;
53299;SDS011;39187;48.476;8.310;2022-07-06T10:20:28;3.10;;;2.00;;
53299;SDS011;39187;48.476;8.310;2022-07-06T10:22:57;3.20;;;3.00;;
53299;SDS011;39187;48.476;8.310;2022-07-06T10:25:25;4.13;;;2.63;;
53299;SDS011;39187;48.476;8.310;2022-07-06T10:27:51;2.20;;;2.10;;
53299;SDS011;39187;48.476;8.310;2022-07-06T10:30:17;4.70;;;2.10;;
53299;SDS011;39187;48.476;8.310;2022-07-06T10:32:44;7.10;;;2.53;;
53299;SDS011;39187;48.476;8.310;2022-07-06T10:35:12;2.13;;;2.03;;
53299;SDS011;39187;48.476;8.310;2022-07-06T10:37:38;4.20;;;2.20;;
53299;SDS011;39187;48.476;8.310;2022-07-06T10:40:05;9.53;;;2.73;;
53299;SDS011;39187;48.476;8.310;2022-07-06T10:43:08;6.20;;;2.43;;
53299;SDS011;39187;48.476;8.310;2022-07-06T10:50:37;5.77;;;2.37;;
53299;SDS011;39187;48.476;8.310;2022-07-06T10:53:09;2.97;;;2.77;;
53299;SDS011;39187;48.476;8.310;2022-07-06T10:55:37;2.53;;;1.87;;
53299;SDS011;39187;48.476;8.310;2022-07-06T10:58:04;3.70;;;2.73;;
53299;SDS011;39187;48.476;8.310;2022-07-06T11:06:11;2.40;;;2.30;;
53299;SDS011;39187;48.476;8.310;2022-07-06T11:08:44;2.73;;;2.53;;
53299;SDS011;39187;48.476;8.310;2022-07-06T11:11:12;2.60;;;2.30;;
53299;SDS011;39187;48.476;8.310;2022-07-06T11:13:52;3.20;;;3.00;;
53299;SDS011;39187;48.476;8.310;2022-07-06T11:16:19;2.67;;;2.47;;
53299;SDS011;39187;48.476;8.310;2022-07-06T11:18:47;3.07;;;2.40;;
53299;SDS011;39187;48.476;8.310;2022-07-06T11:21:18;6.07;;;2.20;;
53299;SDS011;39187;48.476;8.310;2022-07-06T11:23:48;3.23;;;2.60;;
53299;SDS011;39187;48.476;8.310;2022-07-06T11:26:15;3.27;;;3.10;;
53299;SDS011;39187;48.476;8.310;2022-07-06T11:28:41;3.83;;;2.47;;
53299;SDS011;39187;48.476;8.310;2022-07-06T11:31:10;2.70;;;2.60;;
53299;SDS011;39187;48.476;8.310;2022-07-06T11:33:36;4.20;;;2.97;;
53299;SDS011;39187;48.476;8.310;2022-07-06T11:38:43;2.97;;;2.87;;
53299;SDS011;39187;48.476;8.310;2022-07-06T11:41:10;2.77;;;2.50;;
53299;SDS011;39187;48.476;8.310;2022-07-06T11:43:39;2.63;;;2.53;;
53299;SDS011;39187;48.476;8.310;2022-07-06T11:46:19;2.53;;;2.33;;
53299;SDS011;39187;48.476;8.310;2022-07-06T11:48:54;3.03;;;2.90;;
53299;SDS011;39187;48.476;8.310;2022-07-06T11:51:20;2.30;;;2.17;;
53299;SDS011;39187;48.476;8.310;2022-07-06T11:53:48;5.57;;;2.73;;
53299;SDS011;39187;48.476;8.310;2022-07-06T11:56:16;2.83;;;2.73;;
53299;SDS011;39187;48.476;8.310;2022-07-06T11:58:44;2.80;;;2.70;;
53299;SDS011;39187;48.476;8.310;2022-07-06T12:01:12;5.30;;;2.53;;
53299;SDS011;39187;48.476;8.310;2022-07-06T12:03:39;4.63;;;2.43;;
53299;SDS011;39187;48.476;8.310;2022-07-06T12:06:06;4.90;;;3.00;;
53299;SDS011;39187;48.476;8.310;2022-07-06T12:08:44;11.13;;;3.03;;
53299;SDS011;39187;48.476;8.310;2022-07-06T12:11:16;6.50;;;3.17;;
53299;SDS011;39187;48.476;8.310;2022-07-06T12:13:44;2.43;;;2.33;;
53299;SDS011;39187;48.476;8.310;2022-07-06T12:16:10;2.70;;;2.50;;
53299;SDS011;39187;48.476;8.310;2022-07-06T12:18:37;2.53;;;2.43;;
53299;SDS011;39187;48.476;8.310;2022-07-06T12:21:04;6.80;;;2.60;;
53299;SDS011;39187;48.476;8.310;2022-07-06T12:23:45;7.33;;;2.70;;
53299;SDS011;39187;48.476;8.310;2022-07-06T12:26:15;3.13;;;2.93;;
53299;SDS011;39187;48.476;8.310;2022-07-06T12:28:59;2.07;;;1.97;;
53299;SDS011;39187;48.476;8.310;2022-07-06T12:31:32;1.97;;;1.87;;
53299;SDS011;39187;48.476;8.310;2022-07-06T12:34:02;3.00;;;2.80;;
53299;SDS011;39187;48.476;8.310;2022-07-06T12:36:28;3.50;;;2.50;;
53299;SDS011;39187;48.476;8.310;2022-07-06T12:38:54;2.60;;;2.40;;
53299;SDS011;39187;48.476;8.310;2022-07-06T12:41:27;3.77;;;2.40;;
53299;SDS011;39187;48.476;8.310;2022-07-06T12:44:04;7.07;;;2.30;;
53299;SDS011;39187;48.476;8.310;2022-07-06T12:46:38;2.40;;;2.30;;
53299;SDS011;39187;48.476;8.310;2022-07-06T12:49:12;2.03;;;1.87;;
53299;SDS011;39187;48.476;8.310;2022-07-06T12:54:14;3.33;;;2.20;;
53299;SDS011;39187;48.476;8.310;2022-07-06T12:59:22;3.47;;;3.27;;
53299;SDS011;39187;48.476;8.310;2022-07-06T13:01:48;2.50;;;2.10;;
53299;SDS011;39187;48.476;8.310;2022-07-06T13:04:16;2.20;;;2.00;;
53299;SDS011;39187;48.476;8.310;2022-07-06T13:06:41;2.60;;;2.40;;
53299;SDS011;39187;48.476;8.310;2022-07-06T13:09:07;2.77;;;2.40;;
53299;SDS011;39187;48.476;8.310;2022-07-06T13:11:33;3.33;;;2.13;;
53299;SDS011;39187;48.476;8.310;2022-07-06T13:13:58;2.50;;;2.40;;
53299;SDS011;39187;48.476;8.310;2022-07-06T13:16:24;3.30;;;3.10;;
53299;SDS011;39187;48.476;8.310;2022-07-06T13:18:55;3.30;;;2.80;;
53299;SDS011;39187;48.476;8.310;2022-07-06T13:21:21;3.20;;;2.23;;
53299;SDS011;39187;48.476;8.310;2022-07-06T13:23:47;3.43;;;2.80;;
53299;SDS011;39187;48.476;8.310;2022-07-06T13:26:13;3.10;;;2.90;;
53299;SDS011;39187;48.476;8.310;2022-07-06T13:28:38;3.30;;;3.10;;
53299;SDS011;39187;48.476;8.310;2022-07-06T13:31:04;3.00;;;2.80;;
53299;SDS011;39187;48.476;8.310;2022-07-06T13:33:30;2.80;;;2.70;;
53299;SDS011;39187;48.476;8.310;2022-07-06T13:35:55;2.63;;;2.43;;
53299;SDS011;39187;48.476;8.310;2022-07-06T13:38:21;2.33;;;2.07;;
53299;SDS011;39187;48.476;8.310;2022-07-06T13:40:46;6.20;;;5.13;;
53299;SDS011;39187;48.476;8.310;2022-07-06T13:43:12;5.73;;;5.30;;
53299;SDS011;39187;48.476;8.310;2022-07-06T13:45:38;4.13;;;3.80;;
53299;SDS011;39187;48.476;8.310;2022-07-06T13:48:03;4.30;;;3.90;;
53299;SDS011;39187;48.476;8.310;2022-07-06T13:50:29;4.60;;;2.60;;
53299;SDS011;39187;48.476;8.310;2022-07-06T13:52:57;5.40;;;2.47;;
53299;SDS011;39187;48.476;8.310;2022-07-06T13:55:23;2.47;;;2.37;;
53299;SDS011;39187;48.476;8.310;2022-07-06T13:57:49;7.27;;;2.80;;
53299;SDS011;39187;48.476;8.310;2022-07-06T14:00:15;3.83;;;2.50;;
53299;SDS011;39187;48.476;8.310;2022-07-06T14:02:43;2.50;;;2.30;;
53299;SDS011;39187;48.476;8.310;2022-07-06T14:05:09;5.33;;;2.33;;
53299;SDS011;39187;48.476;8.310;2022-07-06T14:07:34;2.80;;;2.57;;
53299;SDS011;39187;48.476;8.310;2022-07-06T14:10:00;2.80;;;2.70;;
53299;SDS011;39187;48.476;8.310;2022-07-06T14:12:26;2.40;;;2.30;;
53299;SDS011;39187;48.476;8.310;2022-07-06T14:14:52;2.03;;;1.93;;
53299;SDS011;39187;48.476;8.310;2022-07-06T14:17:18;2.43;;;2.33;;
53299;SDS011;39187;48.476;8.310;2022-07-06T14:19:43;2.73;;;1.87;;
53299;SDS011;39187;48.476;8.310;2022-07-06T14:22:09;4.00;;;1.50;;
53299;SDS011;39187;48.476;8.310;2022-07-06T14:24:34;2.30;;;2.07;;
53299;SDS011;39187;48.476;8.310;2022-07-06T14:27:00;2.60;;;2.00;;
53299;SDS011;39187;48.476;8.310;2022-07-06T14:29:26;2.40;;;2.30;;
53299;SDS011;39187;48.476;8.310;2022-07-06T14:31:51;2.67;;;2.10;;
53299;SDS011;39187;48.476;8.310;2022-07-06T14:34:17;2.80;;;2.60;;
53299;SDS011;39187;48.476;8.310;2022-07-06T14:36:42;5.13;;;1.97;;
53299;SDS011;39187;48.476;8.310;2022-07-06T14:39:08;4.37;;;2.60;;
53299;SDS011;39187;48.476;8.310;2022-07-06T14:41:34;2.57;;;2.37;;
53299;SDS011;39187;48.476;8.310;2022-07-06T14:44:00;3.67;;;2.20;;
53299;SDS011;39187;48.476;8.310;2022-07-06T14:46:26;2.30;;;2.10;;
53299;SDS011;39187;48.476;8.310;2022-07-06T14:48:52;2.60;;;2.50;;
53299;SDS011;39187;48.476;8.310;2022-07-06T14:51:17;7.33;;;2.10;;
53299;SDS011;39187;48.476;8.310;2022-07-06T14:53:43;2.43;;;1.97;;
53299;SDS011;39187;48.476;8.310;2022-07-06T14:56:08;4.30;;;2.40;;
53299;SDS011;39187;48.476;8.310;2022-07-06T14:58:34;2.30;;;2.10;;
53299;SDS011;39187;48.476;8.310;2022-07-06T15:01:00;2.30;;;2.13;;
53299;SDS011;39187;48.476;8.310;2022-07-06T15:03:26;2.10;;;2.00;;
53299;SDS011;39187;48.476;8.310;2022-07-06T15:05:52;2.47;;;2.33;;
53299;SDS011;39187;48.476;8.310;2022-07-06T15:08:18;8.93;;;2.07;;
53299;SDS011;39187;48.476;8.310;2022-07-06T15:10:44;2.60;;;2.40;;